»·PEaware :: N2114H KSLC-KGPI

N2114H :: KSLC-KGPI

FLIGHT INFORMATION

Flight Status: Arrived
Operator: Privately registered:
United States
More flights under this callsign
Pilot: John H. (10732)
Aircraft: BRITISH AERO BAe-125-700/800
(H25B)
More flights by this aircraft type
Origin: KSLC Salt Lake City Intl
United States
Destination: KGPI Glacier Park Intl
United States
More flights between these airports :: More routes between these airports
Route: +CGULL1 DRYAD BYI FCA
File this flight plan on PilotEdge
Remarks:
Altitude:
(Current/Filed)
36,000ft
Speed:
(Current/Filed)
475kts
Departed: 17-Jun-19 04:27 PM
Arrived: 17-Jun-19 05:43 PM
Distance/Time
Traveled:
462nm/1:16
Distance/Time
To Go:
Arrived

Flight Plot

Page will automatically refresh every two minutes.

Flight plan parsing failed; only flown route is shown


Map Options




Map Legend


Flown Route
Filed Route
Departure Airport
Arrival Airport
Navaid (VOR, NDB)
Fix

Horizontal Profiles

Position Reports

Time Latitude Longitude Heading Altitude Ground
Speed
17-Jun-19 16:10 40.780800 -111.958494 180 4232ft 0kts
17-Jun-19 16:11 40.780800 -111.958494 180 4232ft 0kts
17-Jun-19 16:12 40.780800 -111.958494 180 4232ft 0kts
17-Jun-19 16:13 40.780800 -111.958494 180 4232ft 0kts
17-Jun-19 16:14 40.780800 -111.958494 180 4232ft 0kts
17-Jun-19 16:15 40.780800 -111.958494 180 4232ft 0kts
17-Jun-19 16:16 40.780800 -111.958494 180 4232ft 0kts
17-Jun-19 16:17 40.780800 -111.958494 180 4232ft 0kts
17-Jun-19 16:18 40.780800 -111.958494 180 4232ft 0kts
17-Jun-19 16:19 40.780800 -111.958494 180 4232ft 0kts
17-Jun-19 16:20 40.780800 -111.958494 180 4232ft 0kts
17-Jun-19 16:21 40.781258 -111.959038 351 4232ft 17kts
17-Jun-19 16:22 40.783078 -111.959948 357 4232ft 3kts
17-Jun-19 16:23 40.788708 -111.959865 4 4232ft 33kts
17-Jun-19 16:24 40.797815 -111.960085 323 4232ft 9kts
17-Jun-19 16:25 40.798019 -111.961561 268 4232ft 13kts
17-Jun-19 16:26 40.792509 -111.961914 179 4232ft 108kts
17-Jun-19 16:27 40.747715 -111.983919 247 6412ft 223kts
17-Jun-19 16:28 40.771729 -112.055716 307 9841ft 216kts
17-Jun-19 16:29 40.818114 -112.124354 318 12349ft 279kts
17-Jun-19 16:30 40.875321 -112.197227 316 15300ft 318kts
17-Jun-19 16:31 40.932821 -112.279355 313 18161ft 350kts
17-Jun-19 16:32 41.001362 -112.378463 313 21310ft 377kts
17-Jun-19 16:33 41.077726 -112.465030 321 24953ft 359kts
17-Jun-19 16:34 41.171749 -112.516981 330 27169ft 381kts
17-Jun-19 16:35 41.258131 -112.599445 320 29312ft 385kts
17-Jun-19 16:36 41.334094 -112.701993 313 31028ft 394kts
17-Jun-19 16:37 41.408521 -112.810904 313 32553ft 401kts
17-Jun-19 16:38 41.482660 -112.924388 312 33857ft 409kts
17-Jun-19 16:39 41.557944 -113.040086 312 35031ft 409kts
17-Jun-19 16:40 41.631464 -113.153366 312 36154ft 412kts
17-Jun-19 16:41 41.708819 -113.272971 311 36052ft 436kts
17-Jun-19 16:42 41.789323 -113.397965 311 36051ft 448kts
17-Jun-19 16:43 41.864675 -113.515439 311 36042ft 455kts
17-Jun-19 16:44 41.947658 -113.645352 311 36042ft 460kts
17-Jun-19 16:45 42.030200 -113.775138 310 36036ft 452kts
17-Jun-19 16:46 42.112717 -113.901564 318 36036ft 446kts
17-Jun-19 16:47 42.225239 -113.964949 354 36037ft 448kts
17-Jun-19 16:48 42.350012 -113.937643 10 36039ft 462kts
17-Jun-19 16:49 42.476333 -113.898254 10 36045ft 469kts
17-Jun-19 16:50 42.605032 -113.868786 359 36050ft 469kts
17-Jun-19 16:51 42.734416 -113.873563 356 36051ft 455kts
17-Jun-19 16:52 42.859653 -113.879861 356 36056ft 453kts
17-Jun-19 16:53 42.987681 -113.886328 356 36062ft 464kts
17-Jun-19 16:54 43.117197 -113.892884 356 36068ft 469kts
17-Jun-19 16:55 43.247577 -113.899506 355 36072ft 465kts
17-Jun-19 16:56 43.366612 -113.905583 355 36084ft 463kts
17-Jun-19 16:57 43.495434 -113.912189 355 36104ft 462kts
17-Jun-19 16:58 43.623792 -113.918799 355 36108ft 461kts
17-Jun-19 16:59 43.751973 -113.925428 355 36112ft 461kts
17-Jun-19 17:00 43.880500 -113.932103 355 36115ft 461kts
17-Jun-19 17:01 44.008616 -113.938785 355 36115ft 460kts
17-Jun-19 17:02 44.136677 -113.945494 355 36116ft 460kts
17-Jun-19 17:03 44.264135 -113.952200 355 36117ft 460kts
17-Jun-19 17:04 44.392182 -113.958966 355 36117ft 459kts
17-Jun-19 17:05 44.519976 -113.965748 355 36115ft 458kts
17-Jun-19 17:06 44.647269 -113.972534 355 36113ft 458kts
17-Jun-19 17:07 44.774531 -113.979347 355 36109ft 456kts
17-Jun-19 17:08 44.889821 -113.985545 355 36103ft 454kts
17-Jun-19 17:09 45.016283 -113.992373 354 36100ft 452kts
17-Jun-19 17:10 45.141348 -113.999156 354 36096ft 450kts
17-Jun-19 17:11 45.266217 -114.005960 354 36097ft 448kts
17-Jun-19 17:12 45.381531 -114.012268 354 36099ft 447kts
17-Jun-19 17:13 45.501876 -114.018880 354 36100ft 447kts
17-Jun-19 17:15 45.626222 -114.025740 354 36102ft 445kts
17-Jun-19 17:16 45.748488 -114.032515 354 36103ft 444kts
17-Jun-19 17:17 45.873021 -114.039436 354 35934ft 433kts
17-Jun-19 17:18 45.985713 -114.045721 354 34469ft 408kts
17-Jun-19 17:19 46.107074 -114.052629 355 32891ft 454kts
17-Jun-19 17:20 46.228397 -114.059372 354 31286ft 421kts
17-Jun-19 17:21 46.333865 -114.065347 355 29814ft 406kts
17-Jun-19 17:22 46.446058 -114.071741 355 28212ft 400kts
17-Jun-19 17:23 46.557078 -114.078087 355 26613ft 399kts
17-Jun-19 17:24 46.672637 -114.084742 355 25021ft 428kts
17-Jun-19 17:25 46.797083 -114.091890 355 23428ft 442kts
17-Jun-19 17:26 46.916187 -114.098776 356 21828ft 442kts
17-Jun-19 17:27 47.039191 -114.105914 356 20234ft 439kts
17-Jun-19 17:28 47.160798 -114.113060 355 18623ft 432kts
17-Jun-19 17:29 47.279264 -114.119999 356 17024ft 424kts
17-Jun-19 17:30 47.395953 -114.126822 356 16037ft 407kts
17-Jun-19 17:31 47.506130 -114.133346 355 15911ft 400kts
17-Jun-19 17:32 47.619969 -114.140124 356 14916ft 411kts
17-Jun-19 17:33 47.734888 -114.146943 356 13917ft 414kts
17-Jun-19 17:33 47.831089 -114.152761 355 13084ft 420kts
17-Jun-19 17:35 47.959775 -114.160868 357 11908ft 358kts
17-Jun-19 17:36 48.047402 -114.165835 357 10888ft 286kts
17-Jun-19 17:36 48.112605 -114.169698 357 10054ft 278kts
17-Jun-19 17:37 48.188313 -114.185748 337 9055ft 275kts
17-Jun-19 17:39 48.269976 -114.218129 357 6775ft 229kts
17-Jun-19 17:39 48.318585 -114.201717 19 5411ft 181kts
17-Jun-19 17:40 48.344098 -114.215898 228 4157ft 168kts
17-Jun-19 17:41 48.311664 -114.254057 214 2982ft 97kts
17-Jun-19 17:42 48.307416 -114.258657 214 2982ft 16kts
17-Jun-19 17:43 48.309107 -114.255346 35 2982ft 28kts
17-Jun-19 17:44 48.310121 -114.252046 77 2982ft 4kts
17-Jun-19 17:45 48.310545 -114.252633 304 2982ft 0kts
17-Jun-19 17:46 48.310545 -114.252633 304 2982ft 0kts

Navigation Log

Ident Type
Flight plan parsing failed, navigation log unavailable